Time;durP1;ratioP1;P1;durP2;ratioP2;P2;SDS_P1;SDS_P2;PMS_P1;PMS_P2;Temp;Humidity;BMP_temperature;BMP_pressure;BME280_temperature;BME280_humidity;BME280_pressure;Samples;Min_cycle;Max_cycle;Signal;HPM_P1;HPM_P2
2021/04/04 00:02:05;;;;;;;16.60;4.67;;;;;;;2.24;77.84;101835.39;113207;1209;64458;-79
2021/04/04 00:04:32;;;;;;;13.55;4.45;;;;;;;2.31;77.82;101838.48;113226;1209;64394;-79
2021/04/04 00:06:59;;;;;;;11.80;3.43;;;;;;;2.37;77.89;101830.25;113288;1209;64465;-79
2021/04/04 00:09:26;;;;;;;14.17;4.87;;;;;;;2.42;77.95;101817.73;113392;1209;64431;-79
2021/04/04 00:11:53;;;;;;;16.80;4.90;;;;;;;2.48;77.49;101819.11;114313;1209;64294;-81
2021/04/04 00:14:19;;;;;;;26.27;6.97;;;;;;;2.57;77.47;101825.56;113225;1209;64358;-81
2021/04/04 00:16:46;;;;;;;23.33;8.00;;;;;;;2.62;77.20;101819.11;113346;1209;64553;-80
2021/04/04 00:19:12;;;;;;;20.45;6.75;;;;;;;2.71;77.26;101811.61;113196;1209;64384;-80
2021/04/04 00:21:39;;;;;;;30.70;8.55;;;;;;;2.76;77.17;101809.53;113266;1209;64416;-81
2021/04/04 00:24:07;;;;;;;21.65;7.40;;;;;;;2.82;76.76;101811.77;113339;1209;64380;-79
2021/04/04 00:26:35;;;;;;;23.70;7.70;;;;;;;2.89;76.89;101801.73;113223;1209;64368;-79
2021/04/04 00:29:07;;;;;;;20.03;7.10;;;;;;;2.95;76.88;101801.34;113314;1209;64348;-79
2021/04/04 00:31:37;;;;;;;20.00;7.55;;;;;;;2.98;76.74;101814.27;113306;1209;64457;-79
2021/04/04 00:34:05;;;;;;;16.00;6.60;;;;;;;2.99;76.32;101808.08;113168;1209;65911;-80
2021/04/04 00:36:33;;;;;;;26.27;8.23;;;;;;;3.00;76.50;101807.16;113262;1209;64423;-80
2021/04/04 00:38:59;;;;;;;19.55;9.15;;;;;;;3.00;76.73;101805.36;113235;1209;64464;-80
2021/04/04 00:41:26;;;;;;;24.90;8.60;;;;;;;3.02;76.78;101811.35;113254;1209;64329;-79
2021/04/04 00:43:53;;;;;;;23.50;8.67;;;;;;;3.06;76.70;101801.52;113210;1209;64448;-79
2021/04/04 00:46:19;;;;;;;24.30;7.77;;;;;;;3.09;76.40;101798.69;113166;1209;64512;-79
2021/04/04 00:48:45;;;;;;;24.87;9.70;;;;;;;3.12;76.74;101793.23;113436;1209;64582;-82
2021/04/04 00:51:12;;;;;;;21.80;8.50;;;;;;;3.16;76.50;101797.34;113293;1209;64377;-80
2021/04/04 00:53:40;;;;;;;24.90;8.77;;;;;;;3.19;76.69;101801.56;113256;1207;64256;-80
2021/04/04 00:56:08;;;;;;;22.17;7.67;;;;;;;3.23;76.38;101803.88;113363;1209;64433;-80
2021/04/04 00:58:34;;;;;;;19.30;7.80;;;;;;;3.27;76.31;101807.13;113241;1209;65337;-80
2021/04/04 01:01:02;;;;;;;29.33;7.97;;;;;;;3.29;76.19;101807.87;113244;1209;64390;-79
2021/04/04 01:03:29;;;;;;;13.95;7.25;;;;;;;3.32;76.07;101812.09;113250;1209;64380;-80
2021/04/04 01:05:56;;;;;;;17.80;7.13;;;;;;;3.32;75.94;101809.47;113182;1209;64394;-78
2021/04/04 01:08:23;;;;;;;15.05;5.00;;;;;;;3.33;76.24;101809.35;113311;1209;65201;-80
2021/04/04 01:10:49;;;;;;;16.73;6.43;;;;;;;3.34;76.65;101804.97;113207;1209;64394;-79
2021/04/04 01:13:22;;;;;;;24.20;7.57;;;;;;;3.35;76.41;101814.50;113151;1209;64342;-77
2021/04/04 01:16:04;;;;;;;26.73;7.80;;;;;;;3.37;76.55;101812.63;113166;1209;64393;-77
2021/04/04 01:18:40;;;;;;;13.47;6.30;;;;;;;3.42;76.31;101810.52;113179;1209;64332;-79
2021/04/04 01:21:13;;;;;;;22.30;7.83;;;;;;;3.46;76.32;101805.00;113094;1209;64455;-77
2021/04/04 01:24:10;;;;;;;22.45;6.60;;;;;;;3.51;76.36;101807.31;113118;1209;64438;-77
2021/04/04 01:27:03;;;;;;;17.80;6.67;;;;;;;3.54;76.06;101804.48;112920;1209;64393;-77
2021/04/04 01:29:33;;;;;;;21.70;5.47;;;;;;;3.58;75.87;101805.13;112990;1209;64451;-78
2021/04/04 01:32:00;;;;;;;21.13;6.00;;;;;;;3.57;75.88;101801.66;112931;1209;64902;-80
2021/04/04 01:34:29;;;;;;;17.40;5.00;;;;;;;3.58;75.84;101803.33;112909;1209;64477;-79
2021/04/04 01:37:00;;;;;;;13.97;5.10;;;;;;;3.58;75.83;101812.99;112967;1209;64361;-77
2021/04/04 01:39:31;;;;;;;11.90;4.20;;;;;;;3.56;75.62;101810.47;113068;1209;64388;-78
2021/04/04 01:41:59;;;;;;;16.80;5.03;;;;;;;3.57;75.32;101812.16;113311;1209;64451;-78
2021/04/04 01:44:27;;;;;;;11.40;3.73;;;;;;;3.56;75.72;101809.63;113088;1209;64391;-78
2021/04/04 01:46:56;;;;;;;11.63;4.63;;;;;;;3.57;75.62;101800.80;113142;1208;64384;-77
2021/04/04 01:49:25;;;;;;;15.67;4.93;;;;;;;3.59;75.64;101809.41;113011;1209;64390;-77
2021/04/04 01:51:54;;;;;;;15.87;6.00;;;;;;;3.60;75.49;101796.20;113112;1208;64355;-77
2021/04/04 01:54:21;;;;;;;18.73;5.23;;;;;;;3.63;75.35;101798.64;113047;1209;64394;-77
2021/04/04 01:56:49;;;;;;;23.13;5.57;;;;;;;3.64;74.99;101792.43;113135;1209;64750;-79
2021/04/04 01:59:19;;;;;;;13.90;4.27;;;;;;;3.67;75.33;101796.63;113161;1209;64333;-77
2021/04/04 02:01:48;;;;;;;22.50;5.30;;;;;;;3.68;75.16;101798.32;113177;1209;64524;-78
2021/04/04 02:04:17;;;;;;;11.05;4.15;;;;;;;3.69;74.88;101794.74;113114;1209;64394;-79
2021/04/04 02:06:45;;;;;;;12.53;3.60;;;;;;;3.68;75.04;101788.66;113098;1209;64809;-77
2021/04/04 02:09:15;;;;;;;14.35;4.30;;;;;;;3.66;74.86;101784.47;113176;1209;64728;-78
2021/04/04 02:11:50;;;;;;;12.20;3.90;;;;;;;3.65;74.57;101788.84;113125;1209;64394;-77
2021/04/04 02:14:19;;;;;;;20.83;4.20;;;;;;;3.66;74.76;101780.05;113033;1209;64365;-78
2021/04/04 02:16:49;;;;;;;10.97;4.03;;;;;;;3.67;74.75;101786.96;113165;1209;64503;-77
2021/04/04 02:19:20;;;;;;;14.23;3.77;;;;;;;3.70;74.90;101779.83;113124;1209;64375;-78
2021/04/04 02:21:52;;;;;;;15.40;4.17;;;;;;;3.71;74.93;101781.52;113153;1209;64314;-78
2021/04/04 02:24:21;;;;;;;20.30;4.45;;;;;;;3.71;75.14;101778.91;113181;1209;64266;-78
2021/04/04 02:26:49;;;;;;;18.23;4.20;;;;;;;3.71;74.75;101769.23;113113;1209;64445;-78
2021/04/04 02:29:16;;;;;;;13.57;4.47;;;;;;;3.71;74.97;101771.86;113528;1208;64373;-78
2021/04/04 02:31:51;;;;;;;12.35;3.40;;;;;;;3.72;75.56;101773.55;113047;1209;64388;-78
2021/04/04 02:34:21;;;;;;;9.90;3.33;;;;;;;3.70;75.40;101772.81;113151;1209;64317;-76
2021/04/04 02:36:49;;;;;;;14.10;3.37;;;;;;;3.67;75.15;101773.84;113258;1209;64355;-78
2021/04/04 02:39:26;;;;;;;15.37;4.33;;;;;;;3.66;75.20;101777.42;113044;1209;64589;-79
2021/04/04 02:41:55;;;;;;;14.43;4.40;;;;;;;3.67;75.27;101780.88;113163;1209;64429;-78
2021/04/04 02:44:26;;;;;;;10.83;3.80;;;;;;;3.68;75.24;101778.16;113365;1209;64374;-78
2021/04/04 02:46:56;;;;;;;9.80;3.57;;;;;;;3.71;75.42;101781.52;113251;1209;64407;-78
2021/04/04 02:49:29;;;;;;;10.50;3.27;;;;;;;3.71;75.18;101769.23;113355;1209;64365;-78
2021/04/04 02:52:00;;;;;;;12.75;3.15;;;;;;;3.71;75.67;101774.48;113482;1209;64509;-78
2021/04/04 02:54:29;;;;;;;9.00;2.20;;;;;;;3.70;75.99;101769.33;113243;1209;64416;-78
2021/04/04 02:56:57;;;;;;;14.90;3.70;;;;;;;3.70;75.20;101769.33;113205;1209;64380;-80
2021/04/04 02:59:29;;;;;;;7.35;2.30;;;;;;;3.70;75.70;101762.33;113183;1209;64319;-78
2021/04/04 03:01:59;;;;;;;9.27;2.90;;;;;;;3.70;75.68;101766.70;113122;1209;64413;-79
2021/04/04 03:04:28;;;;;;;16.70;3.40;;;;;;;3.70;75.57;101764.08;113065;1209;64397;-77
2021/04/04 03:06:57;;;;;;;7.50;3.50;;;;;;;3.71;75.60;101769.23;113199;1209;64374;-76
2021/04/04 03:09:31;;;;;;;19.70;4.27;;;;;;;3.71;75.46;101766.61;112929;1209;64403;-76
2021/04/04 03:11:59;;;;;;;14.03;3.50;;;;;;;3.73;74.84;101758.64;113211;1209;64380;-76
2021/04/04 03:14:27;;;;;;;8.03;2.83;;;;;;;3.73;75.19;101748.14;112945;1209;64272;-77
2021/04/04 03:16:55;;;;;;;13.23;3.37;;;;;;;3.72;75.05;101755.19;112926;1209;64502;-77
2021/04/04 03:19:24;;;;;;;12.47;3.07;;;;;;;3.72;75.68;101746.45;112925;1209;64269;-75
2021/04/04 03:21:53;;;;;;;13.60;3.00;;;;;;;3.72;75.20;101749.08;113418;1209;64378;-77
2021/04/04 03:24:22;;;;;;;13.40;3.43;;;;;;;3.72;75.64;101751.70;114528;1209;62265;-77
2021/04/04 03:26:49;;;;;;;13.63;3.23;;;;;;;3.71;75.24;101739.54;113580;1209;64406;-77
2021/04/04 03:29:18;;;;;;;14.63;3.13;;;;;;;3.72;75.44;101746.45;113035;1209;64477;-77
2021/04/04 03:31:44;;;;;;;24.87;4.70;;;;;;;3.73;75.12;101738.48;113087;1209;64333;-78
2021/04/04 03:34:11;;;;;;;12.93;3.27;;;;;;;3.76;75.28;101732.17;113085;1209;64374;-78
2021/04/04 03:36:39;;;;;;;14.97;3.70;;;;;;;3.76;75.54;101726.92;113186;1209;64349;-79
2021/04/04 03:39:07;;;;;;;9.00;3.60;;;;;;;3.75;75.37;101727.89;113235;1209;64415;-78
2021/04/04 03:41:36;;;;;;;13.93;3.87;;;;;;;3.76;75.74;101733.04;113005;1209;64373;-78
2021/04/04 03:44:03;;;;;;;11.53;3.30;;;;;;;3.75;75.51;101728.72;113083;1209;64459;-77
2021/04/04 03:46:34;;;;;;;12.97;4.00;;;;;;;3.74;75.48;101729.68;112988;1209;64425;-76
2021/04/04 03:49:02;;;;;;;15.40;3.77;;;;;;;3.73;75.92;101730.61;113197;1209;64323;-79
2021/04/04 03:51:30;;;;;;;15.83;4.63;;;;;;;3.72;76.39;101730.70;113062;1209;64460;-77
2021/04/04 03:53:59;;;;;;;13.30;4.87;;;;;;;3.72;76.11;101735.95;113106;1209;64531;-81
2021/04/04 03:56:34;;;;;;;24.37;5.93;;;;;;;3.70;76.33;101729.97;113326;1209;64368;-78
2021/04/04 03:59:05;;;;;;;17.50;4.60;;;;;;;3.70;76.07;101732.59;113466;1209;64342;-79
2021/04/04 04:01:34;;;;;;;13.85;5.35;;;;;;;3.70;76.41;101735.22;113188;1209;64425;-79
2021/04/04 04:04:03;;;;;;;23.47;5.13;;;;;;;3.70;75.97;101732.59;113208;1209;64320;-79
2021/04/04 04:06:33;;;;;;;14.97;5.17;;;;;;;3.70;76.26;101724.72;113236;1209;64550;-79
2021/04/04 04:09:04;;;;;;;13.20;3.73;;;;;;;3.68;76.25;101720.44;113204;1209;64422;-81
2021/04/04 04:11:31;;;;;;;8.73;3.30;;;;;;;3.66;75.92;101716.23;113303;1209;64468;-78
2021/04/04 04:14:01;;;;;;;10.07;4.63;;;;;;;3.66;76.31;101713.62;113234;1208;64404;-80
2021/04/04 04:16:29;;;;;;;21.13;5.07;;;;;;;3.67;76.34;101713.48;113233;1209;64345;-81
2021/04/04 04:18:56;;;;;;;13.77;5.00;;;;;;;3.66;76.78;101706.58;113087;1209;64422;-79
2021/04/04 04:21:23;;;;;;;10.77;4.33;;;;;;;3.67;76.33;101700.37;113158;1209;64452;-79
2021/04/04 04:23:50;;;;;;;12.47;4.00;;;;;;;3.66;76.51;101701.33;113305;1209;64404;-80
2021/04/04 04:26:19;;;;;;;12.40;3.33;;;;;;;3.65;76.45;101697.01;113179;1209;64390;-82
2021/04/04 04:28:46;;;;;;;9.07;2.73;;;;;;;3.65;76.14;101699.63;113008;1209;64381;-79
2021/04/04 04:31:19;;;;;;;20.43;3.33;;;;;;;3.64;76.32;101697.13;113154;1209;64486;-79
2021/04/04 04:33:49;;;;;;;9.13;3.13;;;;;;;3.65;76.70;101693.55;113238;1209;64320;-80
2021/04/04 04:36:17;;;;;;;12.47;3.50;;;;;;;3.67;76.16;101687.25;115185;1209;64381;-81
2021/04/04 04:38:44;;;;;;;11.07;3.90;;;;;;;3.70;75.91;101683.59;115836;1209;61926;-82
2021/04/04 04:41:12;;;;;;;14.73;4.97;;;;;;;3.74;76.01;101686.83;114851;1209;64410;-81
2021/04/04 04:43:43;;;;;;;11.77;4.10;;;;;;;3.75;75.64;101678.02;113264;1209;64454;-79
2021/04/04 04:46:17;;;;;;;11.03;4.03;;;;;;;3.75;76.17;101684.11;113214;1209;64390;-80
2021/04/04 04:48:44;;;;;;;15.10;4.57;;;;;;;3.76;75.93;101677.06;113158;1209;64388;-80
2021/04/04 04:51:11;;;;;;;16.47;4.10;;;;;;;3.75;76.08;101678.86;113293;1209;64349;-81
2021/04/04 04:53:38;;;;;;;13.40;4.03;;;;;;;3.73;76.22;101667.63;113162;1209;64323;-81
2021/04/04 04:56:06;;;;;;;11.75;3.60;;;;;;;3.75;75.75;101670.16;113117;1209;64492;-81
2021/04/04 04:58:36;;;;;;;10.63;3.87;;;;;;;3.75;75.73;101678.02;113252;1209;64596;-80
2021/04/04 05:01:07;;;;;;;13.03;3.73;;;;;;;3.74;75.99;101665.83;113689;1209;64368;-81
2021/04/04 05:03:34;;;;;;;10.53;3.40;;;;;;;3.72;75.90;101662.48;113528;1209;64410;-80
2021/04/04 05:06:05;;;;;;;12.87;3.57;;;;;;;3.74;76.16;101671.08;113178;1209;64378;-80
2021/04/04 05:08:33;;;;;;;9.15;2.50;;;;;;;3.74;76.22;101671.08;113244;1209;64483;-81
2021/04/04 05:11:07;;;;;;;6.33;2.60;;;;;;;3.76;75.82;101666.56;113206;1209;64317;-79
2021/04/04 05:13:38;;;;;;;11.30;3.03;;;;;;;3.77;75.65;101670.89;113138;1209;64429;-80
2021/04/04 05:16:11;;;;;;;13.90;3.73;;;;;;;3.78;75.63;101672.55;113398;1209;64324;-80
2021/04/04 05:18:51;;;;;;;12.23;3.33;;;;;;;3.78;75.33;101672.55;116057;1209;63066;-81
2021/04/04 05:21:24;;;;;;;10.07;3.80;;;;;;;3.80;75.49;101673.28;114021;1209;64311;-80
2021/04/04 05:24:03;;;;;;;14.60;3.63;;;;;;;3.82;76.02;101674.84;113228;1209;64416;-78
2021/04/04 05:26:36;;;;;;;19.50;3.77;;;;;;;3.84;75.34;101664.25;113241;1209;64271;-79
2021/04/04 05:29:05;;;;;;;13.23;3.30;;;;;;;3.86;75.23;101665.81;113264;1209;65318;-78
2021/04/04 05:31:32;;;;;;;14.60;3.70;;;;;;;3.90;75.28;101670.88;113356;1209;64416;-78
2021/04/04 05:34:00;;;;;;;13.83;3.10;;;;;;;3.93;75.03;101666.25;113363;1209;64421;-81
2021/04/04 05:36:27;;;;;;;11.17;3.83;;;;;;;3.96;74.85;101665.19;113236;1209;64419;-81
2021/04/04 05:38:58;;;;;;;10.30;3.50;;;;;;;3.99;74.55;101667.59;113337;1209;64390;-81
2021/04/04 05:41:28;;;;;;;14.10;3.47;;;;;;;3.98;74.36;101669.38;113356;1209;66256;-80
2021/04/04 05:44:03;;;;;;;13.50;3.67;;;;;;;3.98;74.29;101674.63;113309;1209;64355;-81
2021/04/04 05:46:36;;;;;;;18.20;4.40;;;;;;;4.02;74.34;101673.47;113283;1209;64313;-80
2021/04/04 05:49:28;;;;;;;14.85;3.95;;;;;;;4.05;73.99;101670.61;113250;1209;64409;-80
2021/04/04 05:52:06;;;;;;;11.93;2.80;;;;;;;4.09;72.90;101681.75;113235;1209;64343;-79
2021/04/04 05:55:02;;;;;;;11.10;3.97;;;;;;;4.11;72.22;101674.60;113404;1209;65626;-79
2021/04/04 05:57:53;;;;;;;8.13;2.83;;;;;;;4.12;72.61;101676.27;113373;1209;64400;-81
2021/04/04 06:00:21;;;;;;;9.30;2.57;;;;;;;4.13;71.68;101672.70;113260;1209;64412;-81
2021/04/04 06:03:27;;;;;;;13.97;3.57;;;;;;;4.14;72.25;101673.54;113465;1209;65588;-80
2021/04/04 06:06:09;;;;;;;9.73;4.07;;;;;;;4.18;71.80;101681.09;113464;1209;64381;-80
2021/04/04 06:09:05;;;;;;;9.57;2.70;;;;;;;4.20;71.26;101679.19;113367;1209;64464;-80
2021/04/04 06:11:36;;;;;;;13.40;2.83;;;;;;;4.23;71.71;101675.50;113289;1209;64350;-80
2021/04/04 06:14:40;;;;;;;8.07;2.63;;;;;;;4.22;71.75;101681.72;113343;1209;64415;-80
2021/04/04 06:17:19;;;;;;;9.17;2.77;;;;;;;4.25;71.27;101681.48;113431;1209;64719;-80
2021/04/04 06:20:10;;;;;;;10.20;2.70;;;;;;;4.26;71.87;101678.76;113426;1209;64436;-80
2021/04/04 06:22:53;;;;;;;10.03;2.87;;;;;;;4.29;71.78;101683.81;113446;1209;64342;-80
2021/04/04 06:25:27;;;;;;;10.53;2.67;;;;;;;4.33;70.66;101678.32;113497;1209;64314;-79
2021/04/04 06:28:15;;;;;;;9.38;2.08;;;;;;;4.34;70.19;101667.71;113344;1209;64394;-80
2021/04/04 06:30:58;;;;;;;8.27;2.47;;;;;;;4.36;69.34;101684.20;113456;1209;64461;-79
2021/04/04 06:33:33;;;;;;;7.27;2.00;;;;;;;4.39;69.49;101683.97;113386;1209;64540;-81
2021/04/04 06:36:03;;;;;;;11.53;2.43;;;;;;;4.43;69.17;101692.48;113664;1209;64378;-80
2021/04/04 06:38:32;;;;;;;6.60;2.40;;;;;;;4.39;67.94;101688.39;113425;1209;64422;-81
2021/04/04 06:41:28;;;;;;;10.83;2.50;;;;;;;4.44;68.97;101686.27;113463;1209;64451;-81
2021/04/04 06:44:13;;;;;;;8.95;2.10;;;;;;;4.48;67.79;101693.84;113560;1209;64413;-82
2021/04/04 06:46:55;;;;;;;10.20;1.88;;;;;;;4.49;66.53;101681.53;113279;1209;64317;-80
2021/04/04 06:50:02;;;;;;;25.40;2.60;;;;;;;4.47;66.36;101686.89;113248;1209;64332;-81
2021/04/04 06:52:53;;;;;;;6.60;1.80;;;;;;;4.51;66.19;101686.69;113166;1209;64423;-80
2021/04/04 06:55:52;;;;;;;5.27;1.40;;;;;;;4.52;64.96;101693.60;114147;1209;64355;-79
2021/04/04 06:58:50;;;;;;;4.90;1.80;;;;;;;4.48;65.69;101677.21;113232;1209;64387;-80
2021/04/04 07:01:58;;;;;;;5.60;1.90;;;;;;;4.46;64.03;101677.34;113177;1209;64336;-82
2021/04/04 07:04:34;;;;;;;5.43;2.33;;;;;;;4.45;63.05;101683.53;113170;1207;64403;-79
2021/04/04 07:07:31;;;;;;;9.97;3.10;;;;;;;4.48;63.93;101682.47;113195;1209;64371;-79
2021/04/04 07:10:15;;;;;;;4.60;1.87;;;;;;;4.51;64.42;101681.43;113117;1209;64605;-80
2021/04/04 07:13:19;;;;;;;14.60;2.40;;;;;;;4.55;63.70;101685.48;112940;1209;64387;-76
2021/04/04 07:16:21;;;;;;;9.27;1.70;;;;;;;4.60;64.19;101680.75;112932;1209;64351;-74
2021/04/04 07:19:13;;;;;;;7.40;1.40;;;;;;;4.67;64.23;101681.97;112934;1209;64326;-75
2021/04/04 07:22:10;;;;;;;9.37;2.10;;;;;;;4.70;63.41;101677.34;112980;1209;64387;-75
2021/04/04 07:25:03;;;;;;;8.97;2.00;;;;;;;4.68;62.84;101678.41;112781;1209;64404;-74
2021/04/04 07:27:44;;;;;;;5.60;2.30;;;;;;;4.71;62.92;101683.42;112987;1209;64361;-75
2021/04/04 07:30:37;;;;;;;8.37;2.67;;;;;;;4.66;62.55;101691.65;112947;1209;64372;-75
2021/04/04 07:33:35;;;;;;;5.33;1.63;;;;;;;4.64;63.10;101679.58;112929;1209;65688;-75
2021/04/04 07:36:21;;;;;;;11.47;3.73;;;;;;;4.63;62.51;101677.88;112934;1209;64709;-75
2021/04/04 07:39:45;;;;;;;6.40;3.57;;;;;;;4.66;63.38;101682.94;112894;1209;64522;-76
2021/04/04 07:42:37;;;;;;;12.05;2.70;;;;;;;4.71;63.05;101686.05;112634;1212;64470;-76
2021/04/04 07:45:35;;;;;;;7.87;2.33;;;;;;;4.69;63.03;101686.16;112929;1209;65609;-75
2021/04/04 07:48:23;;;;;;;8.93;2.40;;;;;;;4.69;62.94;101685.32;112940;1209;64406;-77
2021/04/04 07:50:56;;;;;;;8.77;2.37;;;;;;;4.69;63.02;101685.32;112946;1209;64461;-75
2021/04/04 07:53:41;;;;;;;9.67;3.63;;;;;;;4.72;63.05;101690.38;112929;1209;64367;-76
2021/04/04 07:56:20;;;;;;;7.53;2.10;;;;;;;4.75;62.86;101676.16;112978;1209;64509;-76
2021/04/04 07:58:57;;;;;;;4.93;2.17;;;;;;;4.82;62.94;101683.47;113028;1209;64384;-76
2021/04/04 08:01:39;;;;;;;8.50;2.37;;;;;;;4.90;62.28;101689.00;112910;1209;64498;-76
2021/04/04 08:04:17;;;;;;;7.03;2.03;;;;;;;4.96;62.25;101687.72;113053;1209;64387;-77
2021/04/04 08:06:54;;;;;;;9.37;2.80;;;;;;;5.05;61.98;101683.56;112903;1209;64547;-75
2021/04/04 08:09:30;;;;;;;3.40;1.53;;;;;;;5.09;62.04;101683.21;112880;1209;64390;-76
2021/04/04 08:12:27;;;;;;;7.53;2.77;;;;;;;5.13;61.81;101688.26;112958;1209;64457;-77
2021/04/04 08:15:01;;;;;;;15.30;3.63;;;;;;;5.15;61.32;101683.72;112825;1209;64349;-77
2021/04/04 08:17:28;;;;;;;10.63;3.10;;;;;;;5.16;61.61;101688.84;112888;1209;65439;-75
2021/04/04 08:20:00;;;;;;;11.83;2.53;;;;;;;5.17;60.99;101692.34;112707;1209;65602;-77
2021/04/04 08:22:33;;;;;;;8.27;3.00;;;;;;;5.19;61.57;101686.00;112996;1209;64464;-76
2021/04/04 08:25:07;;;;;;;7.20;3.63;;;;;;;5.21;61.45;101686.73;113016;1209;64413;-76
2021/04/04 08:27:57;;;;;;;10.35;3.40;;;;;;;5.18;61.58;101686.94;112912;1209;64438;-76
2021/04/04 08:30:38;;;;;;;10.60;3.90;;;;;;;5.15;60.82;101686.36;112933;1209;64355;-75
2021/04/04 08:33:17;;;;;;;8.37;4.10;;;;;;;5.16;62.09;101688.84;113100;1209;64467;-74
2021/04/04 08:35:46;;;;;;;11.17;3.87;;;;;;;5.15;61.90;101684.55;112958;1209;64378;-75
2021/04/04 08:38:26;;;;;;;6.97;2.60;;;;;;;5.14;61.79;101685.49;113044;1209;64415;-77
2021/04/04 08:41:00;;;;;;;8.07;2.97;;;;;;;5.10;61.33;101681.45;112934;1209;64375;-76
2021/04/04 08:43:30;;;;;;;6.70;3.47;;;;;;;5.13;63.00;101689.09;112915;1209;65470;-77
2021/04/04 08:46:01;;;;;;;8.47;3.80;;;;;;;5.16;62.45;101688.84;112919;1209;65548;-74
2021/04/04 08:48:29;;;;;;;6.87;3.00;;;;;;;5.18;62.43;101692.20;113015;1209;64464;-74
2021/04/04 08:51:00;;;;;;;8.17;2.73;;;;;;;5.28;61.86;101687.92;112975;1209;64396;-75
2021/04/04 08:53:43;;;;;;;11.93;3.20;;;;;;;5.36;62.05;101684.73;112906;1209;64381;-75
2021/04/04 08:56:12;;;;;;;4.23;2.13;;;;;;;5.48;61.96;101680.31;112941;1209;64313;-75
2021/04/04 08:58:41;;;;;;;6.40;2.60;;;;;;;5.60;60.65;101692.53;112948;1209;65550;-75
2021/04/04 09:01:16;;;;;;;9.60;2.60;;;;;;;5.68;60.78;101682.25;112909;1209;65344;-75
2021/04/04 09:03:49;;;;;;;8.15;3.10;;;;;;;5.70;61.09;101682.97;113015;1209;64358;-75
2021/04/04 09:06:17;;;;;;;7.03;2.00;;;;;;;5.72;61.26;101681.06;113251;1209;64307;-74
2021/04/04 09:08:44;;;;;;;6.30;2.00;;;;;;;5.72;61.67;101682.86;112930;1209;64384;-75
2021/04/04 09:11:11;;;;;;;8.30;2.30;;;;;;;5.72;61.86;101670.53;112910;1209;64509;-75
2021/04/04 09:13:39;;;;;;;8.87;3.73;;;;;;;5.80;61.88;101682.25;113134;1209;64720;-75
2021/04/04 09:16:13;;;;;;;7.23;2.87;;;;;;;5.85;61.04;101680.11;113311;1209;64912;-76
2021/04/04 09:18:45;;;;;;;7.93;2.50;;;;;;;5.85;61.20;101675.67;112886;1209;64387;-75
2021/04/04 09:21:12;;;;;;;5.50;1.50;;;;;;;5.89;61.83;101665.75;112989;1209;65583;-75
2021/04/04 09:23:42;;;;;;;8.70;1.95;;;;;;;5.89;61.07;101671.02;112888;1209;64415;-76
2021/04/04 09:26:11;;;;;;;9.80;2.33;;;;;;;5.81;61.70;101668.14;113631;1209;64384;-75
2021/04/04 09:28:41;;;;;;;3.90;1.80;;;;;;;5.80;61.96;101667.31;113021;1209;64496;-77
2021/04/04 09:31:19;;;;;;;4.07;2.00;;;;;;;5.77;61.90;101667.53;113019;1209;64470;-76
2021/04/04 09:33:59;;;;;;;6.60;1.93;;;;;;;5.76;63.08;101675.55;112844;1209;64448;-75
2021/04/04 09:36:49;;;;;;;5.77;1.73;;;;;;;5.82;62.13;101661.91;112887;1209;65597;-76
2021/04/04 09:39:29;;;;;;;7.27;2.17;;;;;;;5.87;62.39;101665.03;112870;1209;64359;-75
2021/04/04 09:41:59;;;;;;;8.47;2.40;;;;;;;5.91;62.64;101669.10;112909;1209;64400;-75
2021/04/04 09:44:45;;;;;;;6.70;2.40;;;;;;;5.96;62.84;101664.33;112928;1209;64333;-74
2021/04/04 09:47:13;;;;;;;5.30;2.23;;;;;;;6.00;61.55;101668.40;113097;1209;64361;-74
2021/04/04 09:49:49;;;;;;;5.77;2.00;;;;;;;6.10;61.58;101664.09;112989;1209;64568;-76
2021/04/04 09:52:29;;;;;;;9.37;2.53;;;;;;;6.23;61.80;101652.58;112850;1209;64487;-75
2021/04/04 09:55:13;;;;;;;6.77;2.20;;;;;;;6.30;61.79;101645.84;113026;1209;64389;-75
2021/04/04 09:58:00;;;;;;;3.57;1.13;;;;;;;6.31;62.20;101655.41;112899;1209;64394;-76
2021/04/04 10:00:43;;;;;;;5.13;2.10;;;;;;;6.29;61.95;101655.55;112936;1209;64403;-76
2021/04/04 10:03:16;;;;;;;5.03;2.50;;;;;;;6.24;62.43;101660.33;113573;1209;64978;-75
2021/04/04 10:05:46;;;;;;;10.00;3.50;;;;;;;6.23;62.59;101657.84;112939;1209;64412;-76
2021/04/04 10:08:24;;;;;;;5.13;1.83;;;;;;;6.28;62.72;101647.76;112896;1209;64403;-75
2021/04/04 10:10:52;;;;;;;4.77;1.67;;;;;;;6.44;62.96;101653.47;112943;1209;64362;-75
2021/04/04 10:13:25;;;;;;;6.17;1.80;;;;;;;6.57;62.57;101653.31;112908;1209;64407;-75
2021/04/04 10:15:53;;;;;;;3.60;1.50;;;;;;;6.65;62.18;101642.13;113035;1209;64400;-75
2021/04/04 10:18:22;;;;;;;3.55;1.70;;;;;;;6.74;62.46;101641.38;112936;1209;64458;-75
2021/04/04 10:20:52;;;;;;;4.37;1.83;;;;;;;6.71;61.94;101641.62;113146;1209;64476;-76
2021/04/04 10:23:27;;;;;;;2.13;1.10;;;;;;;6.59;61.68;101627.66;112983;1209;64371;-76
2021/04/04 10:26:05;;;;;;;4.47;1.60;;;;;;;6.49;61.81;101629.38;112913;1209;64349;-76
2021/04/04 10:28:51;;;;;;;3.90;1.40;;;;;;;6.38;63.01;101630.25;113038;1209;64416;-76
2021/04/04 10:31:19;;;;;;;2.95;1.90;;;;;;;6.31;63.46;101634.32;112884;1209;64384;-74
2021/04/04 10:33:59;;;;;;;4.55;1.35;;;;;;;6.28;63.50;101627.51;113227;1209;64365;-75
2021/04/04 10:36:27;;;;;;;6.33;1.63;;;;;;;6.30;63.63;101617.68;112911;1209;65598;-75
2021/04/04 10:38:56;;;;;;;5.40;1.10;;;;;;;6.29;64.22;101621.30;113166;1209;64413;-75
2021/04/04 10:41:36;;;;;;;3.60;1.55;;;;;;;6.21;64.85;101614.97;112998;1209;64387;-75
2021/04/04 10:44:05;;;;;;;3.50;1.20;;;;;;;6.19;64.94;101620.36;112883;1209;64406;-75
2021/04/04 10:46:33;;;;;;;3.70;1.50;;;;;;;6.06;66.03;101615.23;113004;1209;64486;-75
2021/04/04 10:49:03;;;;;;;2.20;1.37;;;;;;;5.97;65.87;101621.25;113013;1209;64617;-75
2021/04/04 10:51:30;;;;;;;2.33;1.00;;;;;;;5.88;66.58;101614.02;113123;1209;64378;-75
2021/04/04 10:54:00;;;;;;;4.13;1.30;;;;;;;5.84;66.73;101609.95;112959;1209;65646;-76
2021/04/04 10:56:29;;;;;;;2.40;1.03;;;;;;;5.83;66.99;101603.03;112782;1209;64390;-75
2021/04/04 10:58:59;;;;;;;4.17;1.57;;;;;;;5.83;67.43;101598.59;113012;1209;64403;-75
2021/04/04 11:01:28;;;;;;;3.27;1.33;;;;;;;5.89;67.00;101592.02;112959;1209;64461;-75
2021/04/04 11:03:56;;;;;;;3.10;1.40;;;;;;;5.93;66.64;101582.91;113110;1209;64464;-74
2021/04/04 11:06:22;;;;;;;3.93;1.40;;;;;;;5.93;66.92;101585.55;113258;1209;64426;-75
2021/04/04 11:08:49;;;;;;;1.70;0.70;;;;;;;5.92;66.70;101597.02;112959;1209;65589;-76
2021/04/04 11:11:16;;;;;;;6.73;1.73;;;;;;;5.89;67.68;101582.31;112798;1209;64403;-77
2021/04/04 11:13:45;;;;;;;5.60;1.30;;;;;;;5.89;68.13;101576.22;112930;1209;65579;-76
2021/04/04 11:16:18;;;;;;;4.90;1.57;;;;;;;5.87;68.61;101575.50;113390;1209;64393;-75
2021/04/04 11:18:50;;;;;;;2.00;1.10;;;;;;;5.82;68.69;101575.02;113268;1209;64451;-75
2021/04/04 11:21:28;;;;;;;4.50;1.10;;;;;;;5.75;70.06;101573.84;113014;1209;64432;-75
2021/04/04 11:23:55;;;;;;;3.30;1.05;;;;;;;5.63;70.07;101573.86;112984;1209;64403;-75
2021/04/04 11:26:31;;;;;;;2.57;0.70;;;;;;;5.56;70.68;101582.34;113076;1209;64408;-75
2021/04/04 11:29:17;;;;;;;4.10;1.50;;;;;;;5.52;71.40;101568.58;113102;1209;64445;-75
2021/04/04 11:31:55;;;;;;;4.20;1.50;;;;;;;5.59;71.31;101566.30;112953;1209;64581;-76
2021/04/04 11:34:34;;;;;;;3.45;1.50;;;;;;;5.66;70.29;101549.91;112882;1209;64262;-75
2021/04/04 11:37:11;;;;;;;3.20;1.47;;;;;;;5.71;70.80;101547.73;113019;1209;64341;-76
2021/04/04 11:39:40;;;;;;;4.43;1.33;;;;;;;5.68;69.79;101557.70;113001;1209;64381;-75
2021/04/04 11:42:19;;;;;;;6.23;2.00;;;;;;;5.60;70.39;101571.45;112961;1209;64397;-76
2021/04/04 11:44:52;;;;;;;5.40;1.80;;;;;;;5.51;70.26;101557.23;112878;1209;65384;-75
2021/04/04 11:47:19;;;;;;;6.10;1.53;;;;;;;5.49;70.85;101558.31;112934;1209;64356;-75
2021/04/04 11:49:49;;;;;;;4.93;1.70;;;;;;;5.45;71.86;101554.24;112940;1209;64371;-75
2021/04/04 11:52:16;;;;;;;4.95;1.80;;;;;;;5.44;71.74;101555.19;112943;1209;64339;-75
2021/04/04 11:54:45;;;;;;;4.00;1.73;;;;;;;5.40;71.44;101553.75;112927;1209;64821;-74